Time;durP1;ratioP1;P1;durP2;ratioP2;P2;SDS_P1;SDS_P2;PMS_P1;PMS_P2;Temp;Humidity;BMP_temperature;BMP_pressure;BME280_temperature;BME280_humidity;BME280_pressure;Samples;Min_cycle;Max_cycle;Signal;HPM_P1;HPM_P2
2023/03/27 00:00:31;;;;;;;6.30;2.80;;;;;;;11.88;57.18;99640.17;107820;1290;21987;-63
2023/03/27 00:03:00;;;;;;;5.50;3.10;;;;;;;11.85;57.24;99640.27;107749;1278;199061;-61
2023/03/27 00:05:26;;;;;;;5.20;3.00;;;;;;;11.82;57.30;99643.17;107879;1290;21995;-61
2023/03/27 00:07:54;;;;;;;5.40;3.10;;;;;;;11.77;57.13;99644.00;107863;1290;21995;-63
2023/03/27 00:10:22;;;;;;;4.90;2.90;;;;;;;11.72;56.99;99642.18;107876;1290;21984;-62
2023/03/27 00:12:52;;;;;;;4.60;2.60;;;;;;;11.69;56.98;99641.06;107881;1290;23819;-62
2023/03/27 00:15:20;;;;;;;5.00;3.00;;;;;;;11.64;56.92;99638.22;107824;1290;21989;-62
2023/03/27 00:17:50;;;;;;;4.50;2.60;;;;;;;11.58;57.04;99637.66;107986;1290;21988;-62
2023/03/27 00:20:21;;;;;;;4.90;2.90;;;;;;;11.54;56.77;99634.45;107884;1290;21990;-62
2023/03/27 00:22:54;;;;;;;;;;;;;;;11.50;56.88;99637.73;107890;1290;21978;-62
2023/03/27 00:25:23;;;;;;;5.50;2.80;;;;;;;11.47;56.94;99636.77;107937;1291;23732;-61
2023/03/27 00:27:55;;;;;;;4.30;2.50;;;;;;;11.44;56.86;99639.83;107970;1290;21993;-62
2023/03/27 00:30:22;;;;;;;5.60;2.60;;;;;;;11.38;56.73;99644.39;107942;1290;22053;-62
2023/03/27 00:32:48;;;;;;;6.60;3.50;;;;;;;11.29;56.54;99641.63;107969;1290;21996;-62
2023/03/27 00:35:13;;;;;;;4.00;2.80;;;;;;;11.20;56.26;99640.48;107956;1291;21989;-63
2023/03/27 00:37:39;;;;;;;4.90;3.10;;;;;;;11.09;56.38;99646.73;107766;1290;22010;-62
2023/03/27 00:40:06;;;;;;;6.30;2.90;;;;;;;11.04;56.66;99648.80;107819;1290;21993;-60
2023/03/27 00:42:34;;;;;;;4.40;2.70;;;;;;;11.04;57.03;99648.10;107232;1290;1003919;-62
2023/03/27 00:45:01;;;;;;;4.60;2.80;;;;;;;11.04;57.01;99647.20;107964;1290;23870;-61
2023/03/27 00:47:34;;;;;;;3.30;2.20;;;;;;;11.05;57.05;99648.40;107862;1290;21992;-63
2023/03/27 00:50:11;;;;;;;5.30;2.90;;;;;;;11.06;57.30;99646.97;107789;1290;21997;-62
2023/03/27 00:52:38;;;;;;;7.10;3.30;;;;;;;11.07;57.04;99646.08;107889;1290;21993;-62
2023/03/27 00:55:07;;;;;;;5.30;3.50;;;;;;;11.06;56.84;99640.84;107960;1291;22031;-62
2023/03/27 00:57:33;;;;;;;5.30;3.20;;;;;;;11.05;56.98;99635.41;107926;1290;23705;-63
2023/03/27 01:00:15;;;;;;;6.10;4.60;;;;;;;11.02;56.74;99632.70;107820;1291;22088;-62
2023/03/27 01:02:43;;;;;;;6.60;3.90;;;;;;;10.94;56.68;99628.51;107825;1291;21974;-63
2023/03/27 01:05:09;;;;;;;6.50;3.70;;;;;;;10.86;56.65;99629.05;107748;1291;21996;-63
2023/03/27 01:07:36;;;;;;;5.50;3.40;;;;;;;10.81;56.64;99630.25;107896;1290;21992;-63
2023/03/27 01:10:03;;;;;;;5.00;3.50;;;;;;;10.77;56.67;99635.96;107853;1288;22000;-62
2023/03/27 01:12:36;;;;;;;5.50;3.50;;;;;;;10.71;56.77;99645.76;107996;1290;22004;-62
2023/03/27 01:15:17;;;;;;;6.60;3.80;;;;;;;10.65;57.25;99650.29;107956;1290;23737;-62
2023/03/27 01:18:08;;;;;;;10.00;5.40;;;;;;;10.61;57.34;99655.10;107754;1280;22025;-63
2023/03/27 01:20:33;;;;;;;;;;;;;;;10.58;57.59;99655.17;107774;1290;23067;-63
2023/03/27 01:23:40;;;;;;;5.90;3.50;;;;;;;10.58;57.49;99652.58;107875;1291;22026;-63
2023/03/27 01:26:42;;;;;;;6.30;3.90;;;;;;;10.58;57.60;99647.13;108024;1290;21997;-63
2023/03/27 01:29:29;;;;;;;5.90;3.60;;;;;;;10.59;57.64;99646.94;107886;1289;22456;-63
2023/03/27 01:32:14;;;;;;;6.00;3.60;;;;;;;10.61;57.69;99650.55;107951;1282;22004;-62
2023/03/27 01:35:24;;;;;;;4.70;3.10;;;;;;;10.60;57.65;99647.61;107949;1290;21995;-63
2023/03/27 01:38:15;;;;;;;6.10;3.90;;;;;;;10.57;57.57;99643.11;107882;1290;22747;-63
2023/03/27 01:41:03;;;;;;;5.30;3.50;;;;;;;10.59;57.79;99647.98;107875;1290;21997;-63
2023/03/27 01:43:39;;;;;;;5.60;3.70;;;;;;;10.58;57.86;99648.55;107841;1289;22007;-62
2023/03/27 01:46:15;;;;;;;7.00;3.80;;;;;;;10.54;57.72;99649.85;107879;1290;23640;-62
2023/03/27 01:48:55;;;;;;;6.00;4.20;;;;;;;10.53;57.69;99653.02;107949;1290;23074;-63
2023/03/27 01:51:29;;;;;;;9.60;4.90;;;;;;;10.52;57.83;99655.86;107916;1290;22001;-63
2023/03/27 01:53:58;;;;;;;6.60;4.10;;;;;;;10.52;58.09;99651.13;107878;1284;21992;-63
2023/03/27 01:56:36;;;;;;;6.30;4.30;;;;;;;10.52;57.81;99651.10;107942;1277;22000;-63
2023/03/27 01:59:17;;;;;;;7.50;4.50;;;;;;;10.50;57.83;99653.27;107820;1290;21977;-62
2023/03/27 02:01:47;;;;;;;7.50;4.00;;;;;;;10.49;58.02;99652.41;107937;1290;21984;-63
2023/03/27 02:04:15;;;;;;;;;;;;;;;10.50;57.93;99651.16;107876;1290;21976;-63
2023/03/27 02:06:44;;;;;;;5.80;3.40;;;;;;;10.52;58.06;99655.16;107912;1290;23612;-63
2023/03/27 02:09:32;;;;;;;6.90;4.20;;;;;;;10.53;58.01;99657.76;107137;1288;1002310;-62
2023/03/27 02:12:06;;;;;;;8.30;4.50;;;;;;;10.54;58.13;99657.20;107910;1290;22029;-62
2023/03/27 02:14:35;;;;;;;7.00;4.00;;;;;;;10.54;58.05;99655.64;107879;1290;21987;-62
2023/03/27 02:17:06;;;;;;;5.70;3.50;;;;;;;10.52;57.95;99655.32;108067;1290;21993;-63
2023/03/27 02:19:34;;;;;;;8.10;4.00;;;;;;;10.52;57.97;99659.02;108017;1289;21989;-63
2023/03/27 02:22:00;;;;;;;6.40;4.10;;;;;;;10.54;57.98;99655.98;107965;1290;22002;-62
2023/03/27 02:24:26;;;;;;;6.70;4.00;;;;;;;10.58;58.21;99653.79;107944;1290;21992;-62
2023/03/27 02:26:58;;;;;;;7.00;3.90;;;;;;;10.63;58.12;99652.80;107779;1279;22050;-62
2023/03/27 02:29:30;;;;;;;8.10;3.60;;;;;;;10.66;58.20;99652.20;107830;1290;21993;-62
2023/03/27 02:32:00;;;;;;;5.40;3.40;;;;;;;10.69;58.05;99649.83;107845;1290;21982;-62
2023/03/27 02:34:48;;;;;;;7.90;3.80;;;;;;;10.72;57.85;99653.28;107810;1290;22009;-62
2023/03/27 02:37:27;;;;;;;6.40;3.50;;;;;;;10.71;57.65;99648.89;107826;1290;22017;-62
2023/03/27 02:40:04;;;;;;;6.30;3.80;;;;;;;10.71;57.55;99643.11;107804;1290;23063;-62
2023/03/27 02:42:56;;;;;;;5.60;3.30;;;;;;;10.68;57.22;99636.88;107833;1290;23679;-62
2023/03/27 02:45:43;;;;;;;5.60;3.60;;;;;;;10.61;56.86;99636.16;107913;1290;23889;-62
2023/03/27 02:48:13;;;;;;;8.30;4.50;;;;;;;10.48;56.33;99643.33;107831;1290;21960;-62
2023/03/27 02:50:49;;;;;;;19.40;11.70;;;;;;;10.34;56.02;99653.07;107878;1290;21994;-63
2023/03/27 02:53:21;;;;;;;7.90;5.10;;;;;;;10.22;56.28;99663.33;107822;1290;21993;-63
2023/03/27 02:55:50;;;;;;;7.60;4.30;;;;;;;10.14;56.64;99665.80;107827;1290;22163;-62
2023/03/27 02:58:22;;;;;;;9.50;5.70;;;;;;;10.11;57.07;99665.70;107839;1290;22284;-63
2023/03/27 03:00:50;;;;;;;11.30;6.20;;;;;;;10.10;57.18;99668.17;107807;1290;23667;-62
2023/03/27 03:03:36;;;;;;;11.30;7.00;;;;;;;10.09;57.30;99670.12;107825;1290;21994;-62
2023/03/27 03:06:09;;;;;;;;;;;;;;;10.07;57.46;99668.59;107782;1290;21991;-63
2023/03/27 03:08:39;;;;;;;15.40;8.80;;;;;;;10.05;57.53;99664.95;107882;1291;21996;-63
2023/03/27 03:11:09;;;;;;;9.60;6.20;;;;;;;10.05;57.62;99664.95;107760;1290;22041;-63
2023/03/27 03:13:41;;;;;;;10.20;5.70;;;;;;;10.03;57.62;99660.08;107812;1291;21992;-62
2023/03/27 03:16:08;;;;;;;17.10;9.40;;;;;;;9.99;57.42;99651.04;107800;1290;22739;-63
2023/03/27 03:18:34;;;;;;;15.80;8.90;;;;;;;10.00;57.74;99651.02;107950;1290;22746;-63
2023/03/27 03:21:00;;;;;;;16.10;8.20;;;;;;;10.02;57.87;99651.16;107823;1290;21995;-63
2023/03/27 03:23:26;;;;;;;12.60;7.70;;;;;;;10.04;57.83;99648.67;107872;1291;23615;-63
2023/03/27 03:25:55;;;;;;;12.70;6.70;;;;;;;10.08;58.20;99649.80;107743;1291;21989;-63
2023/03/27 03:28:27;;;;;;;8.80;5.80;;;;;;;10.15;58.23;99647.89;107896;1290;22020;-62
2023/03/27 03:30:53;;;;;;;8.90;5.00;;;;;;;10.19;58.10;99648.68;107705;1291;22000;-63
2023/03/27 03:33:24;;;;;;;8.60;5.10;;;;;;;10.18;57.73;99646.41;107725;1290;22007;-62
2023/03/27 03:35:51;;;;;;;8.60;5.60;;;;;;;10.16;57.61;99643.66;107771;1291;21998;-63
2023/03/27 03:38:23;;;;;;;8.00;4.80;;;;;;;10.15;57.79;99644.40;107772;1291;21994;-63
2023/03/27 03:40:52;;;;;;;10.00;5.70;;;;;;;10.18;57.73;99642.92;107990;1290;23635;-63
2023/03/27 03:43:20;;;;;;;8.40;4.70;;;;;;;10.17;57.53;99645.72;107888;1290;22009;-63
2023/03/27 03:45:53;;;;;;;8.90;4.40;;;;;;;10.14;57.45;99645.81;107755;1290;21993;-63
2023/03/27 03:48:20;;;;;;;8.80;4.50;;;;;;;10.09;57.12;99646.96;107754;1291;24345;-62
2023/03/27 03:50:46;;;;;;;7.70;4.30;;;;;;;10.05;57.16;99646.89;107698;1279;21993;-63
2023/03/27 03:53:13;;;;;;;10.00;5.10;;;;;;;10.01;57.07;99649.59;107719;1289;21992;-63
2023/03/27 03:55:39;;;;;;;8.50;5.30;;;;;;;10.00;57.23;99649.28;107921;1291;22751;-63
2023/03/27 03:58:05;;;;;;;8.20;4.80;;;;;;;10.01;57.47;99648.21;107844;1290;22001;-62
2023/03/27 04:00:36;;;;;;;11.30;5.30;;;;;;;10.06;57.80;99650.38;107226;1291;1003014;-63
2023/03/27 04:03:03;;;;;;;11.00;5.20;;;;;;;10.14;58.17;99650.37;107780;1291;21992;-62
2023/03/27 04:05:30;;;;;;;13.30;5.50;;;;;;;10.21;58.10;99647.77;107883;1290;21989;-62
2023/03/27 04:07:58;;;;;;;9.40;5.10;;;;;;;10.25;58.46;99646.96;107780;1283;21983;-62
2023/03/27 04:10:27;;;;;;;8.20;4.50;;;;;;;10.34;58.56;99644.84;107747;1291;22029;-62
2023/03/27 04:12:53;;;;;;;7.10;4.40;;;;;;;10.37;58.13;99643.37;107760;1286;21993;-61
2023/03/27 04:15:19;;;;;;;23.30;14.70;;;;;;;10.42;58.21;99641.36;107774;1290;21970;-64
2023/03/27 04:17:47;;;;;;;405.50;330.50;;;;;;;10.46;58.16;99646.88;107891;1291;22031;-61
2023/03/27 04:20:13;;;;;;;317.40;251.10;;;;;;;10.49;58.00;99646.11;107753;1291;21991;-63
2023/03/27 04:22:46;;;;;;;56.60;47.20;;;;;;;10.50;57.91;99644.33;107932;1278;22032;-61
2023/03/27 04:25:14;;;;;;;31.20;24.30;;;;;;;10.55;58.13;99644.40;107882;1290;22012;-60
2023/03/27 04:27:42;;;;;;;30.10;22.70;;;;;;;10.61;58.39;99643.90;107792;1290;22003;-60
2023/03/27 04:30:12;;;;;;;;;;;;;;;10.66;58.44;99643.77;107760;1291;22197;-61
2023/03/27 04:32:39;;;;;;;20.10;15.90;;;;;;;10.74;58.76;99649.73;107733;1291;23719;-62
2023/03/27 04:35:05;;;;;;;18.40;13.10;;;;;;;10.82;59.03;99648.09;107702;1291;22036;-63
2023/03/27 04:37:31;;;;;;;15.70;8.90;;;;;;;10.91;59.09;99650.52;107758;1291;22163;-61
2023/03/27 04:39:59;;;;;;;11.30;8.70;;;;;;;10.99;59.28;99649.80;107701;1291;22120;-61
2023/03/27 04:42:25;;;;;;;10.20;7.50;;;;;;;11.09;59.38;99648.51;107769;1290;22032;-61
2023/03/27 04:44:51;;;;;;;6.70;4.50;;;;;;;11.18;59.45;99649.13;107955;1291;21990;-61
2023/03/27 04:47:19;;;;;;;7.00;4.10;;;;;;;11.27;59.75;99646.96;107973;1290;22008;-62
2023/03/27 04:49:49;;;;;;;6.90;4.60;;;;;;;11.38;59.90;99643.52;107890;1291;23388;-63
2023/03/27 04:52:15;;;;;;;;;;;;;;;11.50;59.99;99640.01;107122;1291;1002384;-65
2023/03/27 04:54:42;;;;;;;6.20;3.90;;;;;;;11.60;59.99;99642.19;107739;1291;21987;-66
2023/03/27 04:57:08;;;;;;;5.50;3.90;;;;;;;11.69;59.98;99638.27;107721;1291;22011;-63
2023/03/27 04:59:39;;;;;;;6.20;4.00;;;;;;;11.81;60.63;99639.49;107902;1290;21997;-63
2023/03/27 05:02:05;;;;;;;7.10;5.00;;;;;;;11.96;61.63;99648.02;107885;1290;22160;-63
2023/03/27 05:04:31;;;;;;;7.40;4.50;;;;;;;12.11;61.99;99646.36;107949;1290;21997;-66
2023/03/27 05:07:02;;;;;;;6.40;4.00;;;;;;;12.29;63.05;99641.06;107943;1290;21996;-63
2023/03/27 05:09:28;;;;;;;6.40;4.00;;;;;;;12.50;63.48;99643.41;108552;1290;21983;-66
2023/03/27 05:11:53;;;;;;;5.40;3.90;;;;;;;12.68;63.85;99640.20;107737;1290;23689;-64
2023/03/27 05:14:21;;;;;;;6.00;4.10;;;;;;;12.89;64.72;99638.43;107751;1290;21996;-64
2023/03/27 05:16:49;;;;;;;5.10;3.80;;;;;;;13.11;64.96;99641.73;107822;1290;22050;-64
2023/03/27 05:19:15;;;;;;;4.70;2.90;;;;;;;13.34;65.23;99638.86;108010;1290;21990;-63
2023/03/27 05:21:42;;;;;;;4.50;2.60;;;;;;;13.55;64.88;99640.41;107789;1290;22005;-64
2023/03/27 05:24:09;;;;;;;5.40;2.50;;;;;;;13.75;64.81;99642.68;107861;1290;22852;-63
2023/03/27 05:26:35;;;;;;;3.50;2.60;;;;;;;13.97;65.27;99638.88;107776;1290;21995;-65
2023/03/27 05:29:04;;;;;;;5.10;2.90;;;;;;;14.19;65.56;99633.44;107729;1290;22019;-64
2023/03/27 05:31:32;;;;;;;4.40;2.50;;;;;;;14.41;65.48;99633.66;107792;1291;22105;-65
2023/03/27 05:33:58;;;;;;;4.70;2.50;;;;;;;14.60;65.50;99633.39;107813;1291;22007;-66
2023/03/27 05:36:26;;;;;;;3.30;2.10;;;;;;;14.81;65.94;99632.91;107792;1290;22000;-65
2023/03/27 05:38:53;;;;;;;3.20;2.00;;;;;;;15.06;66.38;99636.84;107987;1290;21994;-67
2023/03/27 05:41:19;;;;;;;3.10;1.90;;;;;;;15.28;66.00;99639.44;107755;1291;22033;-68
2023/03/27 05:43:45;;;;;;;3.20;1.40;;;;;;;15.47;65.33;99635.07;107754;1291;22001;-68
2023/03/27 05:46:12;;;;;;;2.30;1.50;;;;;;;15.64;64.97;99637.83;107810;1290;22000;-68
2023/03/27 05:48:38;;;;;;;2.10;1.20;;;;;;;15.81;64.11;99642.90;107828;1290;22005;-68
2023/03/27 05:51:05;;;;;;;3.10;1.70;;;;;;;15.99;64.98;99647.10;107812;1290;21995;-67
2023/03/27 05:53:31;;;;;;;4.60;2.20;;;;;;;16.20;66.33;99644.50;107760;1291;22017;-67
2023/03/27 05:55:57;;;;;;;5.20;2.90;;;;;;;16.40;65.95;99644.80;107720;1290;21994;-68
2023/03/27 05:58:27;;;;;;;3.90;2.20;;;;;;;16.57;65.03;99645.41;107767;1291;22763;-66
2023/03/27 06:00:54;;;;;;;5.40;3.10;;;;;;;16.73;63.67;99645.88;107799;1290;22003;-66
2023/03/27 06:03:20;;;;;;;5.50;3.40;;;;;;;16.85;61.98;99646.67;107720;1290;23616;-68
2023/03/27 06:05:48;;;;;;;8.30;4.50;;;;;;;16.96;61.55;99646.35;107778;1290;21992;-67
2023/03/27 06:08:15;;;;;;;9.30;5.80;;;;;;;17.06;62.35;99644.05;107845;1290;21986;-67
2023/03/27 06:10:42;;;;;;;9.00;6.10;;;;;;;17.20;63.07;99643.20;107734;1290;22190;-69
2023/03/27 06:13:10;;;;;;;12.70;7.80;;;;;;;17.32;62.64;99641.88;107831;1291;22266;-66
2023/03/27 06:15:39;;;;;;;10.80;7.10;;;;;;;17.41;62.61;99637.14;107789;1290;24329;-63
2023/03/27 06:18:07;;;;;;;10.00;5.90;;;;;;;17.50;62.69;99634.69;107781;1290;23824;-64
2023/03/27 06:20:41;;;;;;;8.10;5.10;;;;;;;17.64;62.87;99633.82;107748;1290;23718;-68
2023/03/27 06:23:09;;;;;;;8.50;4.90;;;;;;;17.79;63.48;99626.45;107825;1288;21995;-69
2023/03/27 06:25:36;;;;;;;4.80;3.00;;;;;;;17.93;63.32;99622.83;107720;1291;21989;-64
2023/03/27 06:28:05;;;;;;;4.50;2.90;;;;;;;18.06;61.32;99626.05;107953;1291;21997;-69
2023/03/27 06:30:34;;;;;;;5.40;3.20;;;;;;;18.19;62.07;99618.61;107714;1290;21991;-69
2023/03/27 06:33:01;;;;;;;5.50;3.70;;;;;;;18.34;62.02;99620.79;107802;1290;21992;-70
2023/03/27 06:35:29;;;;;;;4.00;2.50;;;;;;;18.46;60.62;99617.98;107982;1290;22032;-65
2023/03/27 06:37:57;;;;;;;4.80;2.60;;;;;;;18.55;59.29;99617.83;107981;1290;24328;-66
2023/03/27 06:40:24;;;;;;;3.10;1.70;;;;;;;18.67;59.18;99617.29;107889;1290;22871;-66
2023/03/27 06:43:01;;;;;;;4.00;1.90;;;;;;;18.78;58.23;99615.95;107841;1290;22748;-65
2023/03/27 06:45:32;;;;;;;4.00;1.80;;;;;;;18.91;59.49;99611.52;107916;1290;21992;-65
2023/03/27 06:48:01;;;;;;;2.00;1.40;;;;;;;19.05;59.62;99609.27;107775;1291;22003;-71
2023/03/27 06:50:27;;;;;;;3.40;2.00;;;;;;;19.19;59.58;99608.98;107802;1291;22000;-71
2023/03/27 06:52:53;;;;;;;2.90;1.90;;;;;;;19.33;60.70;99604.58;107797;1290;23341;-71
2023/03/27 06:55:19;;;;;;;2.00;1.10;;;;;;;19.46;58.53;99606.09;107760;1290;22363;-72
2023/03/27 06:57:48;;;;;;;2.30;1.30;;;;;;;19.61;56.69;99603.23;107934;1291;22014;-67
2023/03/27 07:00:25;;;;;;;2.00;1.20;;;;;;;19.76;57.07;99604.58;107850;1291;22883;-67
2023/03/27 07:02:54;;;;;;;1.70;1.00;;;;;;;19.92;56.92;99602.89;107782;1290;22156;-67
2023/03/27 07:05:26;;;;;;;2.60;1.60;;;;;;;20.09;58.03;99596.44;107926;1290;22033;-68
2023/03/27 07:07:53;;;;;;;2.20;1.10;;;;;;;20.29;58.80;99594.82;107796;1290;21957;-67
2023/03/27 07:10:20;;;;;;;4.10;1.60;;;;;;;20.48;57.68;99591.65;107838;1290;21993;-66
2023/03/27 07:12:48;;;;;;;1.60;1.00;;;;;;;20.66;56.89;99586.18;107872;1290;21985;-73
2023/03/27 07:15:15;;;;;;;1.40;0.80;;;;;;;20.81;56.84;99585.04;107817;1291;24340;-67
2023/03/27 07:17:42;;;;;;;1.60;0.90;;;;;;;20.99;58.17;99578.64;107835;1291;22466;-73
2023/03/27 07:20:11;;;;;;;3.50;1.00;;;;;;;21.15;56.95;99579.66;107843;1291;21990;-72
2023/03/27 07:22:41;;;;;;;1.90;0.80;;;;;;;21.20;53.51;99583.05;107185;1291;1002581;-73
2023/03/27 07:25:08;;;;;;;1.50;0.80;;;;;;;21.31;53.25;99580.23;107742;1290;22021;-67
2023/03/27 07:27:34;;;;;;;2.80;1.00;;;;;;;21.36;51.46;99577.92;107771;1290;21998;-66
2023/03/27 07:30:01;;;;;;;1.30;0.90;;;;;;;21.37;49.30;99578.90;107802;1290;21991;-67
2023/03/27 07:32:33;;;;;;;2.50;0.70;;;;;;;21.33;47.97;99574.92;107884;1290;21994;-70
2023/03/27 07:34:59;;;;;;;1.70;1.20;;;;;;;21.27;47.65;99571.54;107917;1290;21989;-67
2023/03/27 07:37:25;;;;;;;4.70;2.10;;;;;;;21.25;47.86;99569.86;107836;1290;22250;-68
2023/03/27 07:39:51;;;;;;;1.70;1.00;;;;;;;21.32;48.77;99565.14;107772;1290;23066;-66
2023/03/27 07:42:18;;;;;;;2.10;1.30;;;;;;;21.44;48.55;99562.36;107879;1290;21996;-73
2023/03/27 07:44:44;;;;;;;2.40;1.40;;;;;;;21.53;47.74;99560.28;107801;1290;21987;-73
2023/03/27 07:47:11;;;;;;;2.90;1.60;;;;;;;21.53;45.35;99558.11;107820;1290;22002;-71
2023/03/27 07:49:36;;;;;;;3.00;1.40;;;;;;;21.55;46.86;99552.99;107812;1290;21999;-73
2023/03/27 07:52:03;;;;;;;3.00;1.50;;;;;;;21.69;47.03;99552.94;107828;1290;21994;-66
2023/03/27 07:54:30;;;;;;;3.30;1.70;;;;;;;21.76;44.70;99552.98;107833;1290;23682;-71
2023/03/27 07:57:00;;;;;;;2.80;1.50;;;;;;;21.88;45.64;99549.25;107837;1290;23075;-66
2023/03/27 07:59:26;;;;;;;3.50;1.50;;;;;;;21.99;45.56;99542.60;107934;1290;21989;-71
2023/03/27 08:01:53;;;;;;;2.90;1.40;;;;;;;22.05;44.32;99541.45;107858;1290;21999;-71
2023/03/27 08:04:19;;;;;;;3.80;1.60;;;;;;;22.15;45.25;99537.42;107794;1290;21997;-72
2023/03/27 08:06:45;;;;;;;4.40;1.90;;;;;;;22.28;44.83;99537.39;107747;1289;21995;-70
2023/03/27 08:09:11;;;;;;;3.90;1.50;;;;;;;22.35;43.81;99534.90;107694;1287;21992;-68
2023/03/27 08:11:39;;;;;;;4.50;2.00;;;;;;;22.41;42.82;99535.37;108123;1291;22101;-71
2023/03/27 08:14:06;;;;;;;3.80;1.10;;;;;;;22.49;43.10;99536.64;107847;1291;21990;-65
2023/03/27 08:16:32;;;;;;;3.50;1.80;;;;;;;22.48;41.75;99531.10;107688;1287;22003;-71
2023/03/27 08:19:00;;;;;;;3.30;1.70;;;;;;;22.39;41.30;99534.05;107778;1290;21997;-71
2023/03/27 08:21:25;;;;;;;7.50;3.80;;;;;;;22.42;41.86;99532.27;107751;1290;22627;-66
2023/03/27 08:23:52;;;;;;;3.90;2.30;;;;;;;22.42;41.74;99532.09;107748;1290;22318;-67
2023/03/27 08:26:17;;;;;;;3.90;2.00;;;;;;;22.39;41.60;99530.17;107729;1290;23588;-71
2023/03/27 08:28:43;;;;;;;4.80;1.70;;;;;;;22.35;41.29;99526.84;107784;1290;21995;-67
2023/03/27 08:31:11;;;;;;;5.50;2.10;;;;;;;22.35;41.47;99524.33;107829;1290;22033;-66
2023/03/27 08:33:37;;;;;;;3.00;1.10;;;;;;;22.34;40.29;99521.55;107939;1291;21997;-67
2023/03/27 08:36:04;;;;;;;2.30;1.20;;;;;;;22.31;40.30;99523.23;107909;1290;21998;-67
2023/03/27 08:38:32;;;;;;;2.40;1.40;;;;;;;22.20;40.63;99525.10;108039;1291;22004;-70
2023/03/27 08:41:02;;;;;;;2.40;1.30;;;;;;;22.25;40.70;99524.05;107678;1290;22009;-65
2023/03/27 08:43:41;;;;;;;3.20;1.60;;;;;;;22.32;40.95;99521.56;107860;1290;21991;-65
2023/03/27 08:46:27;;;;;;;2.40;1.30;;;;;;;22.43;41.52;99519.87;107896;1288;21998;-64
2023/03/27 08:49:13;;;;;;;3.40;1.40;;;;;;;22.59;40.81;99519.41;107677;1290;21993;-71
2023/03/27 08:51:46;;;;;;;4.00;1.90;;;;;;;22.67;40.59;99518.22;107727;1290;21992;-64
2023/03/27 08:54:17;;;;;;;2.50;1.50;;;;;;;22.69;40.66;99509.98;107690;1291;22010;-73
2023/03/27 08:56:44;;;;;;;2.80;1.70;;;;;;;22.68;40.10;99509.27;107770;1282;22003;-73
2023/03/27 08:59:14;;;;;;;3.60;1.60;;;;;;;22.67;40.24;99506.83;107876;1291;22005;-74
2023/03/27 09:01:50;;;;;;;2.40;1.40;;;;;;;22.55;39.82;99505.89;107941;1291;23693;-71
2023/03/27 09:04:23;;;;;;;3.40;1.70;;;;;;;22.52;40.27;99501.52;107965;1291;21991;-69
2023/03/27 09:06:56;;;;;;;3.10;1.70;;;;;;;22.49;40.09;99503.36;107883;1291;21996;-70
2023/03/27 09:09:37;;;;;;;2.50;1.90;;;;;;;22.54;39.96;99495.23;107649;1290;21995;-70
2023/03/27 09:12:12;;;;;;;3.40;2.10;;;;;;;22.57;40.42;99491.34;107713;1286;23735;-68
2023/03/27 09:14:41;;;;;;;5.50;2.40;;;;;;;22.70;40.80;99490.82;107676;1290;21990;-73
2023/03/27 09:17:16;;;;;;;4.60;2.40;;;;;;;22.84;40.59;99487.23;107797;1291;21993;-63
2023/03/27 09:19:48;;;;;;;3.50;2.10;;;;;;;22.93;41.02;99483.38;107829;1290;21998;-62
2023/03/27 09:22:18;;;;;;;3.20;2.20;;;;;;;22.96;41.31;99477.19;107730;1290;23735;-69
2023/03/27 09:24:46;;;;;;;5.10;2.20;;;;;;;23.10;41.44;99477.02;107829;1291;22883;-69
2023/03/27 09:27:13;;;;;;;3.50;2.10;;;;;;;23.34;41.82;99469.83;108081;1291;21999;-71
2023/03/27 09:29:39;;;;;;;4.10;1.80;;;;;;;23.54;41.47;99461.94;107920;1291;22001;-64
2023/03/27 09:32:12;;;;;;;3.80;2.00;;;;;;;23.70;40.38;99461.69;107738;1291;22005;-71
2023/03/27 09:34:38;;;;;;;3.50;2.20;;;;;;;23.72;40.55;99455.60;107785;1290;22000;-70
2023/03/27 09:37:10;;;;;;;5.20;2.10;;;;;;;23.72;40.68;99453.30;107704;1290;21991;-65
2023/03/27 09:39:37;;;;;;;2.70;1.90;;;;;;;23.57;39.70;99453.47;107782;1290;22033;-72
2023/03/27 09:42:08;;;;;;;3.00;1.60;;;;;;;23.42;40.38;99446.80;107749;1290;21990;-65
2023/03/27 09:44:40;;;;;;;3.80;2.20;;;;;;;23.44;40.56;99446.59;107896;1290;22265;-71
2023/03/27 09:47:08;;;;;;;2.70;1.80;;;;;;;23.46;39.88;99446.94;107794;1290;21993;-66
2023/03/27 09:49:34;;;;;;;3.00;1.70;;;;;;;23.65;40.61;99442.95;107801;1290;21996;-70
2023/03/27 09:52:01;;;;;;;5.70;1.80;;;;;;;23.91;40.50;99442.99;107852;1290;22017;-66
2023/03/27 09:54:27;;;;;;;5.30;1.80;;;;;;;24.13;39.99;99445.44;107768;1290;22040;-66
2023/03/27 09:56:55;;;;;;;3.00;1.60;;;;;;;24.35;39.66;99443.42;107758;1290;22032;-70
2023/03/27 09:59:31;;;;;;;2.80;1.30;;;;;;;24.49;38.62;99442.08;107797;1290;21997;-69
2023/03/27 10:01:59;;;;;;;3.80;1.40;;;;;;;24.62;38.57;99443.25;107859;1290;22003;-65
2023/03/27 10:04:26;;;;;;;2.70;1.50;;;;;;;24.63;37.42;99444.60;107888;1290;22067;-73
2023/03/27 10:07:07;;;;;;;2.30;1.40;;;;;;;24.64;37.40;99440.45;107833;1290;21999;-62
2023/03/27 10:09:35;;;;;;;2.80;1.70;;;;;;;24.58;37.38;99443.48;107800;1290;22000;-66
2023/03/27 10:12:03;;;;;;;2.30;1.40;;;;;;;24.57;37.59;99447.85;107856;1290;22004;-65
2023/03/27 10:14:37;;;;;;;3.60;1.30;;;;;;;24.60;37.05;99447.42;107847;1290;22001;-75
2023/03/27 10:17:03;;;;;;;4.80;2.00;;;;;;;24.62;37.30;99445.45;107875;1290;23067;-74
2023/03/27 10:19:35;;;;;;;3.70;1.90;;;;;;;24.71;37.21;99441.86;107799;1291;22018;-74
2023/03/27 10:22:09;;;;;;;3.00;1.70;;;;;;;24.76;37.97;99435.84;107838;1290;22001;-64
2023/03/27 10:24:35;;;;;;;3.80;1.90;;;;;;;24.79;37.38;99435.06;107726;1280;23071;-72
2023/03/27 10:27:05;;;;;;;3.60;1.50;;;;;;;24.84;37.07;99433.55;107897;1291;23438;-73
2023/03/27 10:29:33;;;;;;;5.50;1.80;;;;;;;24.86;37.03;99431.21;107850;1289;21998;-64
2023/03/27 10:32:00;;;;;;;3.40;2.10;;;;;;;24.92;37.01;99428.92;107770;1290;22003;-64
2023/03/27 10:34:38;;;;;;;2.40;1.40;;;;;;;24.70;36.01;99437.42;107796;1290;22671;-75
2023/03/27 10:37:38;;;;;;;5.70;1.90;;;;;;;24.57;36.23;99433.01;107908;1290;21998;-63
2023/03/27 10:40:06;;;;;;;4.00;1.70;;;;;;;24.54;36.87;99437.72;107490;1290;21998;-63
2023/03/27 10:42:33;;;;;;;4.20;2.30;;;;;;;24.41;37.23;99434.15;107757;1290;22753;-64
2023/03/27 10:44:59;;;;;;;6.30;3.40;;;;;;;24.28;37.61;99435.23;107810;1290;21993;-63
2023/03/27 10:47:29;;;;;;;3.60;2.20;;;;;;;24.23;38.38;99429.36;107728;1290;21985;-63
2023/03/27 10:50:00;;;;;;;3.70;2.10;;;;;;;24.12;37.98;99431.90;107755;1290;21995;-71
2023/03/27 10:52:37;;;;;;;5.50;2.30;;;;;;;24.07;38.37;99426.83;107027;1290;1002256;-63
2023/03/27 10:55:27;;;;;;;4.40;2.50;;;;;;;23.94;38.67;99417.79;107827;1290;23615;-74
2023/03/27 10:57:54;;;;;;;3.50;2.60;;;;;;;23.64;38.95;99421.02;107000;1290;1002388;-64
2023/03/27 11:00:37;;;;;;;4.40;2.90;;;;;;;23.40;40.15;99414.34;107777;1290;21998;-63
2023/03/27 11:03:27;;;;;;;4.30;2.30;;;;;;;23.07;40.57;99408.73;107857;1290;22071;-63
2023/03/27 11:05:53;;;;;;;4.40;2.50;;;;;;;23.06;41.50;99400.77;107720;1290;22962;-64
2023/03/27 11:08:44;;;;;;;5.50;2.60;;;;;;;23.13;41.60;99393.23;107787;1290;22043;-63
2023/03/27 11:11:24;;;;;;;6.10;2.40;;;;;;;23.21;41.56;99386.88;107822;1290;23628;-71
2023/03/27 11:13:49;;;;;;;4.50;2.70;;;;;;;23.36;41.47;99384.23;107756;1290;22017;-63
2023/03/27 11:16:27;;;;;;;4.90;2.60;;;;;;;23.35;41.06;99383.58;107718;1286;24315;-73
2023/03/27 11:19:01;;;;;;;5.20;2.60;;;;;;;23.40;40.98;99377.86;107736;1290;21996;-64
2023/03/27 11:21:44;;;;;;;7.00;3.00;;;;;;;23.48;40.77;99379.20;107701;1290;23782;-73
2023/03/27 11:24:33;;;;;;;5.10;2.70;;;;;;;23.46;40.14;99371.61;107759;1290;22003;-71
2023/03/27 11:27:19;;;;;;;4.30;2.60;;;;;;;23.40;39.79;99368.34;107695;1290;22017;-63
2023/03/27 11:30:24;;;;;;;3.70;2.60;;;;;;;23.28;39.49;99365.19;107930;1290;25745;-63
2023/03/27 11:33:12;;;;;;;9.30;2.90;;;;;;;23.16;39.19;99358.30;107785;1290;23736;-76
2023/03/27 11:36:12;;;;;;;5.50;3.70;;;;;;;23.12;39.93;99362.14;107855;1290;21998;-63
2023/03/27 11:38:42;;;;;;;6.20;2.90;;;;;;;23.21;40.03;99357.84;107775;1290;23689;-62
2023/03/27 11:41:11;;;;;;;21.10;4.30;;;;;;;23.40;39.06;99352.23;107062;1290;1003193;-74